Time;durP1;ratioP1;P1;durP2;ratioP2;P2;SDS_P1;SDS_P2;PMS_P1;PMS_P2;Temp;Humidity;BMP_temperature;BMP_pressure;BME280_temperature;BME280_humidity;BME280_pressure;Samples;Min_cycle;Max_cycle;Signal;HPM_P1;HPM_P2
2020/12/13 00:01:03;;;;;;;2.40;2.30;;;6.80;88.60;;;;;;5081471;28;20467;-74
2020/12/13 00:03:31;;;;;;;2.50;2.30;;;6.90;87.90;;;;;;5086283;28;20466;-74
2020/12/13 00:05:58;;;;;;;2.57;2.40;;;6.90;90.30;;;;;;5088036;28;20484;-74
2020/12/13 00:08:26;;;;;;;2.87;2.60;;;6.90;86.60;;;;;;5087952;28;20492;-73
2020/12/13 00:10:54;;;;;;;3.70;3.40;;;7.00;78.10;;;;;;5086173;28;20482;-75
2020/12/13 00:13:22;;;;;;;2.70;2.50;;;7.00;77.60;;;;;;5083052;28;20483;-74
2020/12/13 00:15:50;;;;;;;2.97;2.70;;;7.10;69.00;;;;;;5084596;28;21156;-75
2020/12/13 00:18:17;;;;;;;3.00;2.70;;;7.10;59.10;;;;;;5080608;28;20492;-74
2020/12/13 00:20:44;;;;;;;3.10;2.80;;;7.20;52.60;;;;;;5085083;28;20532;-74
2020/12/13 00:23:15;;;;;;;2.50;2.30;;;7.20;47.30;;;;;;5066001;28;20480;-75
2020/12/13 00:25:42;;;;;;;4.23;2.97;;;7.10;44.60;;;;;;5059312;28;20465;-75
2020/12/13 00:28:09;;;;;;;3.50;3.20;;;7.20;49.40;;;;;;5083394;28;20561;-75
2020/12/13 00:30:37;;;;;;;3.33;3.03;;;7.10;48.00;;;;;;5065673;28;21696;-75
2020/12/13 00:33:05;;;;;;;3.47;3.17;;;7.30;46.50;;;;;;5064096;28;20486;-75
2020/12/13 00:35:32;;;;;;;3.40;3.10;;;7.30;37.40;;;;;;5088347;28;20464;-75
2020/12/13 00:38:00;;;;;;;2.50;2.30;;;7.40;30.20;;;;;;5084210;28;21051;-74
2020/12/13 00:40:27;;;;;;;3.47;3.17;;;7.50;25.10;;;;;;5065629;28;20882;-75
2020/12/13 00:42:54;;;;;;;3.00;2.80;;;7.50;20.40;;;;;;5064301;28;20478;-74
2020/12/13 00:45:21;;;;;;;3.90;2.90;;;7.60;15.80;;;;;;5083320;28;20835;-75
2020/12/13 00:47:49;;;;;;;3.03;2.83;;;7.60;11.20;;;;;;5084409;28;20513;-76
2020/12/13 00:50:17;;;;;;;3.20;3.00;;;7.60;2.50;;;;;;5085541;28;21000;-76
2020/12/13 00:52:44;;;;;;;4.23;3.83;;;7.60;1.00;;;;;;5063152;28;20459;-76
2020/12/13 00:55:11;;;;;;;3.47;3.17;;;7.60;1.00;;;;;;5083259;28;20466;-75
2020/12/13 00:57:38;;;;;;;4.50;4.10;;;7.60;1.00;;;;;;5068987;28;21415;-75
2020/12/13 01:00:06;;;;;;;4.13;3.80;;;7.60;1.00;;;;;;5078903;28;20508;-75
2020/12/13 01:02:33;;;;;;;4.20;3.80;;;7.60;1.00;;;;;;5084570;28;20491;-75
2020/12/13 01:05:00;;;;;;;6.90;3.50;;;7.50;1.00;;;;;;5079834;28;20484;-75
2020/12/13 01:07:28;;;;;;;3.80;3.50;;;7.50;1.00;;;;;;5086184;28;20495;-75
2020/12/13 01:09:55;;;;;;;4.13;3.73;;;7.50;1.00;;;;;;5089741;28;20528;-76
2020/12/13 01:12:22;;;;;;;3.87;3.50;;;7.50;1.00;;;;;;5082358;28;20470;-78
2020/12/13 01:14:50;;;;;;;4.03;3.73;;;7.50;1.00;;;;;;5064574;28;20555;-75
2020/12/13 01:17:17;;;;;;;4.30;3.90;;;7.50;1.00;;;;;;5085087;28;20499;-77
2020/12/13 01:19:47;;;;;;;4.87;4.43;;;7.50;1.00;;;;;;5065743;28;20478;-77
2020/12/13 01:22:14;;;;;;;4.60;4.03;;;7.50;1.00;;;;;;5063431;28;20566;-75
2020/12/13 01:24:42;;;;;;;4.53;4.13;;;7.50;1.00;;;;;;5079822;28;20454;-77
2020/12/13 01:27:10;;;;;;;4.43;4.03;;;7.50;1.00;;;;;;5081644;28;21077;-75
2020/12/13 01:29:38;;;;;;;4.27;3.90;;;7.40;1.00;;;;;;5066387;28;20499;-76
2020/12/13 01:32:05;;;;;;;6.30;4.63;;;7.40;1.00;;;;;;5062819;28;20471;-74
2020/12/13 01:34:32;;;;;;;4.50;4.10;;;7.40;1.00;;;;;;5084713;28;20472;-76
2020/12/13 01:37:00;;;;;;;5.40;4.27;;;7.40;1.00;;;;;;5081555;28;20557;-75
2020/12/13 01:39:28;;;;;;;6.20;4.60;;;7.40;1.00;;;;;;5084734;28;21208;-75
2020/12/13 01:41:58;;;;;;;3.60;3.30;;;7.40;1.00;;;;;;5083900;28;20481;-74
2020/12/13 01:44:31;;;;;;;3.73;3.37;;;7.30;1.00;;;;;;5082967;28;20480;-77
2020/12/13 01:46:59;;;;;;;3.17;2.97;;;7.20;5.80;;;;;;5057583;28;20509;-76
2020/12/13 01:49:33;;;;;;;3.20;2.90;;;7.10;17.90;;;;;;5081725;28;20483;-75
2020/12/13 01:52:39;;;;;;;3.87;3.00;;;7.10;25.60;;;;;;5083988;28;20474;-74
2020/12/13 01:55:01;;;;;;;3.23;3.00;;;7.20;23.20;;;;;;5080762;28;21053;-75
2020/12/13 01:57:33;;;;;;;2.80;2.50;;;7.10;27.60;;;;;;5081134;28;20521;-77
2020/12/13 02:00:05;;;;;;;7.63;2.97;;;7.10;24.00;;;;;;5079721;28;21227;-75
2020/12/13 02:02:36;;;;;;;3.07;2.87;;;7.10;29.50;;;;;;5057514;28;20512;-76
2020/12/13 02:05:04;;;;;;;3.20;2.90;;;7.00;35.20;;;;;;5076501;28;20501;-76
2020/12/13 02:07:31;;;;;;;4.23;3.20;;;6.90;47.90;;;;;;5064265;28;20525;-77
2020/12/13 02:09:59;;;;;;;2.90;2.60;;;6.80;63.60;;;;;;5083072;28;20973;-75
2020/12/13 02:12:26;;;;;;;3.50;3.20;;;6.80;72.70;;;;;;5082110;28;20981;-75
2020/12/13 02:14:54;;;;;;;2.87;2.57;;;6.80;75.00;;;;;;5072339;28;20501;-77
2020/12/13 02:17:21;;;;;;;2.47;2.27;;;6.80;73.50;;;;;;5083972;28;20614;-75
2020/12/13 02:19:48;;;;;;;3.10;2.47;;;6.70;84.10;;;;;;5080032;28;20533;-75
2020/12/13 02:22:16;;;;;;;3.10;2.50;;;6.70;86.20;;;;;;5076082;28;20585;-77
2020/12/13 02:24:43;;;;;;;2.30;2.07;;;6.70;87.80;;;;;;5078721;28;20512;-78
2020/12/13 02:27:11;;;;;;;2.30;2.17;;;6.90;86.10;;;;;;5080648;28;20480;-76
2020/12/13 02:29:38;;;;;;;2.77;2.40;;;6.80;78.50;;;;;;5079336;28;20459;-76
2020/12/13 02:32:05;;;;;;;2.60;2.40;;;6.90;79.30;;;;;;5076255;28;20491;-76
2020/12/13 02:34:32;;;;;;;3.73;2.37;;;6.90;73.10;;;;;;5072228;28;20477;-76
2020/12/13 02:37:00;;;;;;;3.90;3.60;;;6.80;69.00;;;;;;5057830;28;20754;-76
2020/12/13 02:39:28;;;;;;;4.53;2.53;;;6.90;73.00;;;;;;5058961;28;20547;-76
2020/12/13 02:41:59;;;;;;;2.57;2.27;;;6.90;75.90;;;;;;5086178;28;20497;-76
2020/12/13 02:44:27;;;;;;;2.83;2.60;;;7.00;72.10;;;;;;5082166;28;20556;-76
2020/12/13 02:46:54;;;;;;;2.73;2.53;;;7.00;61.50;;;;;;5073869;28;20586;-77
2020/12/13 02:49:21;;;;;;;3.07;2.77;;;7.10;57.20;;;;;;5078403;28;20470;-76
2020/12/13 02:51:49;;;;;;;2.93;2.40;;;7.10;52.80;;;;;;5083428;28;20482;-77
2020/12/13 02:54:16;;;;;;;2.87;2.67;;;7.00;47.90;;;;;;5085766;28;20470;-76
2020/12/13 02:56:44;;;;;;;2.77;2.57;;;7.10;51.90;;;;;;5061593;28;20521;-76
2020/12/13 02:59:11;;;;;;;2.30;2.10;;;7.10;48.50;;;;;;5083654;28;20534;-77
2020/12/13 03:01:38;;;;;;;3.10;2.40;;;7.00;47.70;;;;;;5086127;28;20530;-76
2020/12/13 03:04:05;;;;;;;2.00;1.90;;;7.00;56.60;;;;;;5085762;28;20554;-77
2020/12/13 03:06:32;;;;;;;2.00;1.90;;;7.00;53.40;;;;;;5082533;28;20493;-77
2020/12/13 03:08:59;;;;;;;4.43;1.87;;;7.10;53.30;;;;;;5084032;28;20546;-77
2020/12/13 03:11:26;;;;;;;2.20;2.10;;;7.20;50.50;;;;;;5087652;28;20575;-77
2020/12/13 03:13:54;;;;;;;3.13;2.73;;;7.20;36.80;;;;;;5085451;28;20528;-77
2020/12/13 03:16:21;;;;;;;2.80;2.60;;;7.20;41.30;;;;;;5087480;28;20489;-78
2020/12/13 03:18:49;;;;;;;2.27;2.07;;;7.30;36.90;;;;;;5083309;28;20466;-76
2020/12/13 03:21:16;;;;;;;2.93;2.63;;;7.30;30.30;;;;;;5084858;28;20478;-76
2020/12/13 03:23:43;;;;;;;3.90;2.40;;;7.40;24.70;;;;;;5079543;28;20494;-77
2020/12/13 03:26:10;;;;;;;2.80;2.60;;;7.40;27.50;;;;;;5082385;28;20479;-77
2020/12/13 03:28:37;;;;;;;2.80;2.60;;;7.40;23.00;;;;;;5085841;28;20546;-76
2020/12/13 03:31:05;;;;;;;2.30;2.10;;;7.40;17.30;;;;;;5084200;28;20485;-77
2020/12/13 03:33:33;;;;;;;2.63;1.90;;;7.30;16.70;;;;;;5088827;28;20466;-77
2020/12/13 03:36:00;;;;;;;2.87;2.57;;;7.10;25.70;;;;;;5071407;28;20462;-76
2020/12/13 03:38:27;;;;;;;3.13;1.83;;;7.00;37.90;;;;;;5086535;28;20949;-77
2020/12/13 03:40:54;;;;;;;2.60;2.40;;;7.10;43.30;;;;;;5082664;28;20475;-76
2020/12/13 03:43:21;;;;;;;1.90;1.80;;;7.10;41.50;;;;;;5069382;28;20886;-78
2020/12/13 03:45:48;;;;;;;3.33;2.33;;;7.00;44.80;;;;;;5089639;28;20483;-77
2020/12/13 03:48:16;;;;;;;2.30;2.10;;;7.00;53.30;;;;;;5066672;28;20494;-78
2020/12/13 03:50:43;;;;;;;2.40;2.20;;;7.10;48.70;;;;;;5083254;28;21000;-77
2020/12/13 03:53:12;;;;;;;2.10;2.00;;;7.20;39.00;;;;;;5084123;28;20531;-78
2020/12/13 03:55:40;;;;;;;2.67;2.17;;;7.20;26.70;;;;;;5069319;28;20482;-78
2020/12/13 03:58:13;;;;;;;3.20;2.80;;;7.30;21.50;;;;;;5069000;28;20512;-78
2020/12/13 04:00:40;;;;;;;2.23;2.10;;;7.30;14.50;;;;;;5067120;28;20464;-77
2020/12/13 04:03:07;;;;;;;2.53;2.33;;;7.30;5.30;;;;;;5084992;28;20484;-77
2020/12/13 04:05:36;;;;;;;4.53;2.77;;;7.30;2.60;;;;;;5068955;28;20983;-77
2020/12/13 04:08:03;;;;;;;2.50;2.30;;;7.30;2.80;;;;;;5065016;28;20492;-78
2020/12/13 04:10:30;;;;;;;2.63;2.07;;;7.30;2.20;;;;;;5084526;28;20507;-78
2020/12/13 04:12:57;;;;;;;2.90;2.50;;;7.30;1.00;;;;;;5077448;28;20466;-79
2020/12/13 04:15:24;;;;;;;2.10;2.00;;;7.30;4.30;;;;;;5085622;28;20467;-77
2020/12/13 04:17:52;;;;;;;1.50;1.40;;;7.30;7.10;;;;;;5086052;28;20498;-78
2020/12/13 04:20:19;;;;;;;2.30;1.57;;;7.20;19.00;;;;;;5084346;28;20471;-76
2020/12/13 04:22:47;;;;;;;1.60;1.50;;;7.10;28.80;;;;;;5083954;28;20860;-77
2020/12/13 04:25:14;;;;;;;1.40;1.30;;;7.10;39.80;;;;;;5090357;28;20536;-77
2020/12/13 04:27:42;;;;;;;1.97;1.40;;;7.00;46.20;;;;;;5077559;28;20490;-77
2020/12/13 04:30:09;;;;;;;1.53;1.30;;;7.10;51.80;;;;;;5084658;28;21001;-79
2020/12/13 04:32:36;;;;;;;1.70;1.60;;;7.20;38.30;;;;;;5065939;28;20493;-77
2020/12/13 04:35:04;;;;;;;1.67;1.50;;;7.20;44.90;;;;;;5065355;28;20485;-77
2020/12/13 04:37:31;;;;;;;1.40;1.30;;;7.30;39.50;;;;;;5069780;28;20584;-78
2020/12/13 04:40:00;;;;;;;1.20;1.10;;;7.20;32.20;;;;;;5083168;28;20477;-76
2020/12/13 04:42:29;;;;;;;1.30;1.20;;;7.30;37.50;;;;;;5081469;28;20496;-79
2020/12/13 04:44:56;;;;;;;1.37;1.27;;;7.40;32.60;;;;;;5081711;28;20483;-77
2020/12/13 04:47:28;;;;;;;1.40;1.30;;;7.30;16.80;;;;;;5083572;28;21072;-78
2020/12/13 04:49:58;;;;;;;1.40;1.30;;;7.40;24.10;;;;;;5080989;28;20479;-78
2020/12/13 04:52:27;;;;;;;1.60;1.50;;;7.40;22.10;;;;;;5067371;28;21011;-77
2020/12/13 04:54:54;;;;;;;1.70;1.40;;;7.50;17.90;;;;;;5081464;28;20492;-74
2020/12/13 04:57:22;;;;;;;1.47;1.37;;;7.50;7.60;;;;;;5067284;28;20597;-78
2020/12/13 04:59:50;;;;;;;1.60;1.50;;;7.60;1.00;;;;;;5060096;28;20462;-78
2020/12/13 05:02:18;;;;;;;3.13;1.80;;;7.60;1.00;;;;;;5082309;28;20468;-77
2020/12/13 05:04:46;;;;;;;1.70;1.60;;;7.50;1.00;;;;;;5059070;28;20483;-80
2020/12/13 05:07:13;;;;;;;1.63;1.53;;;7.50;1.00;;;;;;5089051;28;21035;-77
2020/12/13 05:09:41;;;;;;;2.10;1.83;;;7.40;1.00;;;;;;5087063;28;20474;-77
2020/12/13 05:12:08;;;;;;;1.83;1.73;;;7.40;1.00;;;;;;5068536;28;20605;-77
2020/12/13 05:14:36;;;;;;;1.60;1.50;;;7.20;5.10;;;;;;5088098;28;20471;-77
2020/12/13 05:17:08;;;;;;;1.50;1.40;;;7.10;23.40;;;;;;5086080;28;20496;-78
2020/12/13 05:19:37;;;;;;;1.40;1.30;;;7.00;30.90;;;;;;5085868;28;21117;-77
2020/12/13 05:22:05;;;;;;;2.27;1.20;;;7.00;36.60;;;;;;5089694;28;20583;-76
2020/12/13 05:24:33;;;;;;;1.50;1.40;;;6.90;40.90;;;;;;5086734;28;20486;-78
2020/12/13 05:27:01;;;;;;;1.30;1.20;;;6.90;47.40;;;;;;5086011;28;20494;-78
2020/12/13 05:29:32;;;;;;;1.73;1.53;;;6.80;55.70;;;;;;5083296;28;20472;-77
2020/12/13 05:32:14;;;;;;;1.50;1.40;;;6.70;58.20;;;;;;5067260;28;21124;-78
2020/12/13 05:34:43;;;;;;;1.80;1.50;;;6.80;58.90;;;;;;5083241;28;20470;-79
2020/12/13 05:37:15;;;;;;;1.27;1.17;;;6.70;52.10;;;;;;5066733;28;20557;-77
2020/12/13 05:39:44;;;;;;;1.30;1.20;;;6.80;56.10;;;;;;5080438;28;20485;-77
2020/12/13 05:42:15;;;;;;;1.33;1.23;;;6.80;48.70;;;;;;5067897;28;20480;-80
2020/12/13 05:50:27;;;;;;;1.03;1.03;;;6.80;48.90;;;;;;5090541;28;20607;-78
2020/12/13 05:52:55;;;;;;;1.20;1.10;;;6.80;47.70;;;;;;5084430;28;20463;-78
2020/12/13 05:55:22;;;;;;;1.17;1.10;;;6.80;51.90;;;;;;5067701;28;20471;-79
2020/12/13 05:57:49;;;;;;;1.10;1.00;;;6.90;36.00;;;;;;5085939;28;20556;-79
2020/12/13 06:00:17;;;;;;;1.40;1.30;;;6.90;34.10;;;;;;5080399;28;20466;-78
2020/12/13 06:02:48;;;;;;;1.33;1.00;;;6.80;36.50;;;;;;5078117;28;20513;-78
2020/12/13 06:05:17;;;;;;;1.63;1.10;;;6.90;36.30;;;;;;5083324;28;20475;-78
2020/12/13 06:07:48;;;;;;;0.90;0.90;;;6.90;42.00;;;;;;5066569;28;20581;-77
2020/12/13 06:10:24;;;;;;;1.00;1.00;;;7.00;35.50;;;;;;5085615;28;20516;-78
2020/12/13 06:13:00;;;;;;;1.10;1.00;;;7.00;20.10;;;;;;5082086;28;20472;-75
2020/12/13 06:15:32;;;;;;;0.83;0.83;;;7.10;13.20;;;;;;5095700;28;20515;-78
2020/12/13 06:18:00;;;;;;;0.90;0.90;;;7.20;5.30;;;;;;5085627;28;21075;-78
2020/12/13 06:20:28;;;;;;;1.00;0.90;;;7.20;1.00;;;;;;5085570;28;20462;-79
2020/12/13 06:22:56;;;;;;;0.90;0.90;;;7.20;1.00;;;;;;5083376;28;20535;-79
2020/12/13 06:25:23;;;;;;;1.50;1.30;;;7.10;1.00;;;;;;5075865;28;21272;-79
2020/12/13 06:27:52;;;;;;;1.13;1.03;;;7.20;1.00;;;;;;5068042;28;21332;-80
2020/12/13 06:30:20;;;;;;;1.20;1.10;;;7.20;1.00;;;;;;5086049;28;20472;-77
2020/12/13 06:32:51;;;;;;;1.23;1.20;;;7.30;1.00;;;;;;5061796;28;20817;-80
2020/12/13 06:35:20;;;;;;;1.30;1.20;;;7.40;1.00;;;;;;5085600;28;20905;-79
2020/12/13 06:37:47;;;;;;;1.00;0.90;;;7.30;1.00;;;;;;5085426;28;21132;-79
2020/12/13 06:40:19;;;;;;;0.97;0.90;;;7.20;1.00;;;;;;5091957;28;21229;-79
2020/12/13 06:42:49;;;;;;;1.23;0.90;;;7.20;1.00;;;;;;5085492;28;20493;-76
2020/12/13 06:45:17;;;;;;;1.00;0.90;;;7.20;1.00;;;;;;5082339;28;21163;-78
2020/12/13 06:47:50;;;;;;;0.80;0.80;;;7.10;1.00;;;;;;5068726;28;20576;-78
2020/12/13 06:50:23;;;;;;;5.30;2.77;;;7.10;1.00;;;;;;5067641;28;20956;-77
2020/12/13 06:52:51;;;;;;;1.60;1.40;;;7.20;1.00;;;;;;5067306;28;20835;-76
2020/12/13 06:55:18;;;;;;;1.13;0.90;;;7.10;1.00;;;;;;5085254;28;20509;-75
2020/12/13 06:57:47;;;;;;;1.10;1.00;;;7.20;1.00;;;;;;5068769;28;20920;-78
2020/12/13 07:00:14;;;;;;;1.27;1.00;;;7.30;1.00;;;;;;5082984;28;20970;-81
2020/12/13 07:03:02;;;;;;;1.53;0.90;;;7.20;1.00;;;;;;5082231;28;20557;-77
2020/12/13 07:05:54;;;;;;;1.20;1.10;;;6.90;6.20;;;;;;5085012;28;21195;-78
2020/12/13 07:08:23;;;;;;;0.73;0.73;;;6.80;30.30;;;;;;5086558;28;20504;-74
2020/12/13 07:10:51;;;;;;;0.90;0.90;;;6.70;54.50;;;;;;5092238;28;20461;-79
2020/12/13 07:13:21;;;;;;;1.10;0.70;;;6.70;70.90;;;;;;5078591;28;20931;-80
2020/12/13 07:15:52;;;;;;;0.80;0.80;;;6.80;75.60;;;;;;5090200;28;20470;-72
2020/12/13 07:18:22;;;;;;;1.07;0.97;;;6.70;78.10;;;;;;5087861;28;20492;-81
2020/12/13 07:20:49;;;;;;;0.90;0.90;;;6.70;90.90;;;;;;5082483;28;20477;-77
2020/12/13 07:23:17;;;;;;;1.57;1.10;;;6.70;91.40;;;;;;5078655;28;21001;-77
2020/12/13 07:25:44;;;;;;;1.20;1.10;;;6.70;91.20;;;;;;5074001;28;20834;-77
2020/12/13 07:28:12;;;;;;;1.37;1.20;;;6.70;94.10;;;;;;5064614;28;20486;-79
2020/12/13 07:30:39;;;;;;;1.10;1.00;;;6.70;96.10;;;;;;5086550;28;20471;-74
2020/12/13 07:33:06;;;;;;;1.40;1.30;;;6.80;95.00;;;;;;5067522;28;20457;-78
2020/12/13 07:35:34;;;;;;;1.50;1.40;;;6.80;98.20;;;;;;5084393;28;20462;-78
2020/12/13 07:38:02;;;;;;;1.97;1.47;;;6.80;95.90;;;;;;5080992;28;20481;-78
2020/12/13 07:40:30;;;;;;;3.13;2.83;;;6.90;93.10;;;;;;5072136;28;20467;-76
2020/12/13 07:42:59;;;;;;;2.50;1.30;;;6.90;90.20;;;;;;5091705;28;20537;-78
2020/12/13 07:45:26;;;;;;;1.80;1.60;;;6.90;84.80;;;;;;5089242;28;20523;-78
2020/12/13 07:48:00;;;;;;;1.73;1.50;;;6.90;79.60;;;;;;5088750;28;20489;-77
2020/12/13 07:50:34;;;;;;;2.00;1.90;;;6.90;86.00;;;;;;5084776;28;20496;-77
2020/12/13 07:53:01;;;;;;;2.13;1.80;;;6.80;73.50;;;;;;5089082;28;20544;-77
2020/12/13 07:55:28;;;;;;;2.67;2.10;;;6.90;72.50;;;;;;5087166;28;20475;-78
2020/12/13 07:57:57;;;;;;;2.63;1.57;;;7.00;71.50;;;;;;5092135;28;20513;-78
2020/12/13 08:00:26;;;;;;;2.40;1.90;;;7.10;62.50;;;;;;5090000;28;20488;-77
2020/12/13 08:02:55;;;;;;;1.90;1.80;;;7.20;51.00;;;;;;5064243;28;20464;-78
2020/12/13 08:05:24;;;;;;;3.03;1.83;;;7.30;38.50;;;;;;5089430;28;20477;-77
2020/12/13 08:07:58;;;;;;;2.40;1.83;;;7.40;28.00;;;;;;5097485;28;21215;-77
2020/12/13 08:10:28;;;;;;;2.70;2.03;;;7.40;21.40;;;;;;5087237;28;20473;-78
2020/12/13 08:12:56;;;;;;;2.40;2.20;;;7.40;13.60;;;;;;5085839;28;20526;-79
2020/12/13 08:15:24;;;;;;;2.10;2.00;;;7.50;6.30;;;;;;5092967;28;20929;-77
2020/12/13 08:18:02;;;;;;;1.75;1.65;;;7.50;1.40;;;;;;5085164;28;20471;-78
2020/12/13 08:20:32;;;;;;;1.80;1.70;;;7.50;1.00;;;;;;5061613;28;20897;-79
2020/12/13 08:23:02;;;;;;;1.83;1.73;;;7.50;1.00;;;;;;5065921;28;20441;-78
2020/12/13 08:25:30;;;;;;;1.83;1.73;;;7.50;1.00;;;;;;5094506;28;20868;-79
2020/12/13 08:27:59;;;;;;;1.83;1.73;;;7.60;1.00;;;;;;5091764;28;20649;-74
2020/12/13 08:30:28;;;;;;;2.17;1.97;;;7.60;1.00;;;;;;5088737;28;20523;-72
2020/12/13 08:32:58;;;;;;;2.73;2.53;;;7.60;1.00;;;;;;5068737;28;20458;-77
2020/12/13 08:35:28;;;;;;;2.70;2.50;;;7.70;1.00;;;;;;5089802;28;20460;-79
2020/12/13 08:37:59;;;;;;;3.30;2.30;;;7.80;1.00;;;;;;5069302;28;20497;-80
2020/12/13 08:40:37;;;;;;;2.57;2.30;;;7.90;1.00;;;;;;5086083;28;20484;-79
2020/12/13 08:43:06;;;;;;;2.70;2.03;;;8.00;1.00;;;;;;5084205;28;20531;-78
2020/12/13 08:45:34;;;;;;;2.40;2.20;;;8.10;1.00;;;;;;5080406;28;20503;-78
2020/12/13 08:48:08;;;;;;;2.27;2.07;;;8.10;1.00;;;;;;5084908;28;20493;-79
2020/12/13 08:50:41;;;;;;;3.40;2.43;;;8.30;1.00;;;;;;5082887;28;20471;-81
2020/12/13 08:53:22;;;;;;;2.83;2.20;;;8.50;1.00;;;;;;5084864;28;20595;-81
2020/12/13 08:56:05;;;;;;;1.80;1.70;;;8.50;1.00;;;;;;5083322;28;20519;-80
2020/12/13 08:58:47;;;;;;;2.00;1.90;;;8.60;1.00;;;;;;5084970;28;20474;-80
2020/12/13 09:01:14;;;;;;;2.40;2.20;;;8.70;1.00;;;;;;5062095;28;20526;-79
2020/12/13 09:03:41;;;;;;;1.83;1.73;;;8.90;1.00;;;;;;5060220;28;20485;-80
2020/12/13 09:06:09;;;;;;;2.20;2.00;;;9.00;99.90;;;;;;5087780;28;21162;-80
2020/12/13 09:08:36;;;;;;;2.10;2.00;;;9.10;99.90;;;;;;5084615;28;21250;-81
2020/12/13 09:11:04;;;;;;;1.97;1.53;;;9.20;66.00;;;;;;5082153;28;21245;-77
2020/12/13 09:13:32;;;;;;;2.23;1.90;;;9.20;36.50;;;;;;5073451;28;20857;-77
2020/12/13 09:16:04;;;;;;;2.07;1.57;;;9.20;1.00;;;;;;5063285;28;20931;-77
2020/12/13 09:18:32;;;;;;;2.17;1.60;;;9.20;1.00;;;;;;5080501;28;20549;-76
2020/12/13 09:20:59;;;;;;;1.67;1.40;;;9.20;1.00;;;;;;5080125;28;20479;-76
2020/12/13 09:23:26;;;;;;;5.80;1.77;;;9.20;1.00;;;;;;5081261;28;20492;-76
2020/12/13 09:25:54;;;;;;;4.23;1.77;;;9.20;1.00;;;;;;5077253;28;20481;-76
2020/12/13 09:28:21;;;;;;;1.97;1.60;;;9.20;99.90;;;;;;5089663;28;20497;-76
2020/12/13 09:30:49;;;;;;;1.73;1.20;;;9.10;1.00;;;;;;5082191;28;20499;-75
2020/12/13 09:33:16;;;;;;;1.57;1.37;;;9.00;61.70;;;;;;5082639;28;20905;-77
2020/12/13 09:35:44;;;;;;;1.10;1.00;;;9.00;69.00;;;;;;5076773;28;20483;-78
2020/12/13 09:38:11;;;;;;;4.40;3.13;;;9.10;1.00;;;;;;5083666;28;20494;-76
2020/12/13 09:40:39;;;;;;;2.60;1.60;;;9.10;99.90;;;;;;5078627;28;20466;-77
2020/12/13 09:43:06;;;;;;;1.33;1.23;;;9.10;24.30;;;;;;5061773;28;20968;-77
2020/12/13 09:45:33;;;;;;;1.07;1.00;;;9.10;30.20;;;;;;5083199;28;20541;-77
2020/12/13 09:48:00;;;;;;;2.20;1.40;;;9.10;99.90;;;;;;5070075;28;20846;-77
2020/12/13 09:50:29;;;;;;;1.10;1.00;;;9.20;99.90;;;;;;5089147;28;20542;-76
2020/12/13 09:52:56;;;;;;;1.20;1.10;;;9.40;99.90;;;;;;5096608;28;20505;-76
2020/12/13 09:55:24;;;;;;;1.10;1.00;;;9.80;99.90;;;;;;5075262;28;20468;-75
2020/12/13 09:57:52;;;;;;;1.00;0.90;;;10.00;99.90;;;;;;5065732;28;20882;-76
2020/12/13 10:00:20;;;;;;;0.90;0.90;;;10.30;99.90;;;;;;5091626;28;21037;-77
2020/12/13 10:02:47;;;;;;;1.87;1.00;;;10.20;1.00;;;;;;5082431;28;20464;-75
2020/12/13 10:05:21;;;;;;;1.23;1.13;;;10.10;1.00;;;;;;5079557;28;20496;-75
2020/12/13 10:10:34;;;;;;;1.00;0.90;;;9.60;1.00;;;;;;5081368;28;20474;-77
2020/12/13 10:13:01;;;;;;;1.00;0.90;;;9.30;1.00;;;;;;5078999;28;20474;-77
2020/12/13 10:15:28;;;;;;;1.00;0.90;;;9.20;99.90;;;;;;5080607;28;20911;-77
2020/12/13 10:17:55;;;;;;;0.97;0.80;;;9.20;1.00;;;;;;5076015;28;20493;-77
2020/12/13 10:20:22;;;;;;;1.57;1.33;;;9.10;15.80;;;;;;5061145;28;20541;-77
2020/12/13 10:22:50;;;;;;;6.37;3.60;;;9.10;1.00;;;;;;5081139;28;20475;-77
2020/12/13 10:25:17;;;;;;;4.17;2.40;;;9.10;2.60;;;;;;5061508;28;20503;-76
2020/12/13 10:27:45;;;;;;;2.80;1.40;;;9.00;99.90;;;;;;5063438;28;20860;-77
2020/12/13 10:30:12;;;;;;;0.80;0.80;;;9.00;99.90;;;;;;5083002;28;20881;-76
2020/12/13 10:32:39;;;;;;;1.67;1.20;;;8.80;99.90;;;;;;5081857;28;20554;-77
2020/12/13 10:35:06;;;;;;;1.40;0.90;;;8.80;99.90;;;;;;5074601;28;20501;-77
2020/12/13 10:37:33;;;;;;;1.10;1.00;;;8.80;1.00;;;;;;5086553;28;20479;-74
2020/12/13 10:40:01;;;;;;;1.70;1.30;;;8.90;70.60;;;;;;5085621;28;20475;-76
2020/12/13 10:42:28;;;;;;;8.70;1.40;;;8.90;29.50;;;;;;5081329;28;20472;-72
2020/12/13 10:44:55;;;;;;;1.80;1.20;;;9.00;99.90;;;;;;5080871;28;20523;-76
2020/12/13 10:47:24;;;;;;;1.20;1.10;;;9.00;99.90;;;;;;5080327;28;21014;-76
2020/12/13 10:49:52;;;;;;;4.60;2.53;;;9.00;1.00;;;;;;5066919;28;20889;-74
2020/12/13 10:52:19;;;;;;;5.13;2.20;;;9.00;1.00;;;;;;5062132;28;20483;-79
2020/12/13 10:54:46;;;;;;;2.03;1.80;;;9.00;99.90;;;;;;5084163;28;20465;-75
2020/12/13 10:57:14;;;;;;;1.77;1.40;;;9.00;99.90;;;;;;5073508;28;20647;-73
2020/12/13 10:59:41;;;;;;;1.30;1.13;;;9.00;1.00;;;;;;5070848;28;21277;-78
2020/12/13 11:02:08;;;;;;;1.70;1.30;;;9.00;1.00;;;;;;5058731;28;20473;-74
2020/12/13 11:04:36;;;;;;;1.70;1.17;;;9.00;99.90;;;;;;5056789;28;21612;-75
2020/12/13 11:07:03;;;;;;;1.50;1.40;;;9.00;99.90;;;;;;5074690;28;20479;-75
2020/12/13 11:09:30;;;;;;;1.10;1.07;;;9.00;28.70;;;;;;5060969;28;20213;-76
2020/12/13 11:11:57;;;;;;;1.30;1.20;;;9.10;94.70;;;;;;5074301;28;20472;-79
2020/12/13 11:14:25;;;;;;;1.57;1.20;;;9.10;99.90;;;;;;5073457;28;21292;-74
2020/12/13 11:16:52;;;;;;;1.83;1.60;;;9.00;1.00;;;;;;5081914;28;20489;-76
2020/12/13 11:19:20;;;;;;;2.17;1.70;;;9.00;1.00;;;;;;5081650;28;20461;-74
2020/12/13 11:21:47;;;;;;;1.90;1.80;;;8.70;1.00;;;;;;5079274;28;20467;-74
2020/12/13 11:24:14;;;;;;;2.10;1.90;;;8.60;29.70;;;;;;5062132;28;20503;-74
2020/12/13 11:26:47;;;;;;;1.90;1.80;;;8.30;99.90;;;;;;5087943;28;20475;-73
2020/12/13 11:29:14;;;;;;;2.77;2.20;;;8.20;1.00;;;;;;5087596;28;20451;-76
2020/12/13 11:31:43;;;;;;;1.63;1.53;;;8.10;99.90;;;;;;5087730;28;20486;-74
2020/12/13 11:34:10;;;;;;;2.07;1.93;;;8.20;99.90;;;;;;5095928;28;20895;-74
2020/12/13 11:36:37;;;;;;;2.87;2.67;;;8.40;3.90;;;;;;5069491;28;20492;-74
2020/12/13 11:39:04;;;;;;;2.50;2.23;;;8.50;1.00;;;;;;5091292;28;20472;-73
2020/12/13 11:41:31;;;;;;;2.00;1.90;;;8.60;1.00;;;;;;5091993;28;20577;-75
2020/12/13 11:43:58;;;;;;;3.50;1.73;;;8.70;1.00;;;;;;5082087;28;20532;-75
2020/12/13 11:46:26;;;;;;;2.20;2.10;;;8.80;99.90;;;;;;5082208;28;20488;-76
2020/12/13 11:48:54;;;;;;;2.77;1.87;;;8.80;99.90;;;;;;5083338;28;21088;-74
2020/12/13 11:51:21;;;;;;;1.70;1.60;;;8.80;99.90;;;;;;5073731;28;20500;-75
2020/12/13 11:53:48;;;;;;;1.73;1.43;;;8.80;69.30;;;;;;5083881;28;21074;-76
2020/12/13 11:56:20;;;;;;;2.60;1.50;;;8.90;1.00;;;;;;5082174;28;20434;-75
2020/12/13 11:58:48;;;;;;;1.90;1.50;;;8.80;1.00;;;;;;5082857;28;20510;-75
2020/12/13 12:01:19;;;;;;;2.13;1.60;;;8.80;1.00;;;;;;5065504;28;20500;-74
2020/12/13 12:03:47;;;;;;;1.50;1.40;;;8.80;39.00;;;;;;5076429;28;20840;-75
2020/12/13 12:06:15;;;;;;;3.00;1.77;;;8.80;99.90;;;;;;5076600;28;20529;-74
2020/12/13 12:08:55;;;;;;;1.90;1.70;;;8.70;1.00;;;;;;5062858;28;21327;-74
2020/12/13 12:11:23;;;;;;;2.23;1.80;;;8.70;1.00;;;;;;5083416;28;20478;-74
2020/12/13 12:13:50;;;;;;;3.13;1.53;;;8.60;38.80;;;;;;5097833;28;20555;-73
2020/12/13 12:16:25;;;;;;;1.70;1.60;;;8.60;99.90;;;;;;5088591;28;20513;-73
2020/12/13 12:18:53;;;;;;;2.13;1.53;;;8.50;99.90;;;;;;5079893;28;20470;-75
2020/12/13 12:21:23;;;;;;;2.33;1.47;;;8.50;1.00;;;;;;5076912;28;20458;-73
2020/12/13 12:23:50;;;;;;;1.67;1.57;;;8.50;99.90;;;;;;5088228;28;20471;-74
2020/12/13 12:26:19;;;;;;;3.00;2.70;;;8.50;1.00;;;;;;5082507;28;20467;-75
2020/12/13 12:28:46;;;;;;;2.70;2.03;;;8.70;1.00;;;;;;5085632;28;20473;-74
2020/12/13 12:31:17;;;;;;;2.50;2.30;;;8.70;1.00;;;;;;5081420;28;20473;-75
2020/12/13 12:33:44;;;;;;;1.93;1.50;;;8.80;99.90;;;;;;5084982;28;21144;-75
2020/12/13 12:36:16;;;;;;;1.70;1.50;;;8.80;1.00;;;;;;5085215;28;20552;-74
2020/12/13 12:38:45;;;;;;;1.70;1.33;;;8.80;99.90;;;;;;5082807;28;20812;-75
2020/12/13 12:41:13;;;;;;;1.73;1.30;;;8.80;30.00;;;;;;5087288;28;21805;-74
2020/12/13 12:43:40;;;;;;;2.20;1.10;;;8.80;48.60;;;;;;5092040;28;20475;-74
2020/12/13 12:46:08;;;;;;;2.00;1.80;;;8.80;99.90;;;;;;5087127;28;20456;-73
2020/12/13 12:48:35;;;;;;;3.30;2.20;;;8.80;1.00;;;;;;5081450;28;20497;-74
2020/12/13 12:51:03;;;;;;;2.10;2.00;;;8.80;1.00;;;;;;5078642;28;20465;-75
2020/12/13 12:53:30;;;;;;;2.17;1.50;;;8.80;99.90;;;;;;5068397;28;20474;-74
2020/12/13 12:55:58;;;;;;;1.87;1.70;;;8.80;91.60;;;;;;5084095;28;20477;-74
2020/12/13 12:58:28;;;;;;;1.93;1.70;;;8.70;99.90;;;;;;5091073;28;20885;-75
2020/12/13 13:00:57;;;;;;;2.10;1.80;;;8.70;99.90;;;;;;5084237;28;20554;-74
2020/12/13 13:03:26;;;;;;;2.20;1.70;;;8.70;1.00;;;;;;5086034;28;20482;-74
2020/12/13 13:06:00;;;;;;;3.77;1.93;;;8.70;1.00;;;;;;5089093;28;20575;-75
2020/12/13 13:08:30;;;;;;;1.73;1.63;;;8.70;1.00;;;;;;5074665;28;20549;-74
2020/12/13 13:11:01;;;;;;;2.40;1.70;;;8.70;1.00;;;;;;5086084;28;20469;-76
2020/12/13 13:13:29;;;;;;;3.30;2.77;;;8.70;1.00;;;;;;5084797;28;20475;-74
2020/12/13 13:15:57;;;;;;;2.30;2.00;;;8.60;99.90;;;;;;5086565;28;20877;-74